Time;durP1;ratioP1;P1;durP2;ratioP2;P2;SDS_P1;SDS_P2;PMS_P1;PMS_P2;Temp;Humidity;BMP_temperature;BMP_pressure;BME280_temperature;BME280_humidity;BME280_pressure;Samples;Min_cycle;Max_cycle;Signal;HPM_P1;HPM_P2
2021/11/10 00:02:16;;;;;;;13.38;8.48;;;6.10;94.80;;;;;;5016127;28;20037;-72
2021/11/10 00:04:42;;;;;;;14.70;9.20;;;6.10;94.80;;;;;;5013003;28;20839;-72
2021/11/10 00:07:08;;;;;;;13.00;8.18;;;6.10;94.80;;;;;;5007965;28;20045;-71
2021/11/10 00:09:34;;;;;;;19.17;8.27;;;6.10;94.70;;;;;;5005591;28;20033;-72
2021/11/10 00:12:00;;;;;;;13.35;7.88;;;6.00;94.70;;;;;;5007450;28;20052;-71
2021/11/10 00:14:26;;;;;;;14.27;8.32;;;6.10;94.70;;;;;;5012888;28;20568;-73
2021/11/10 00:16:56;;;;;;;16.45;8.82;;;6.10;94.60;;;;;;5006924;28;20080;-72
2021/11/10 00:19:23;;;;;;;17.45;8.40;;;6.00;94.70;;;;;;5009530;28;20132;-73
2021/11/10 00:21:49;;;;;;;12.85;7.97;;;6.00;94.80;;;;;;5015121;28;20057;-72
2021/11/10 00:24:17;;;;;;;11.35;7.32;;;6.00;94.90;;;;;;5010727;28;20038;-72
2021/11/10 00:26:43;;;;;;;13.32;8.75;;;5.90;94.90;;;;;;5004341;28;20045;-72
2021/11/10 00:29:08;;;;;;;15.13;8.50;;;5.90;94.80;;;;;;5004505;28;20425;-72
2021/11/10 00:31:34;;;;;;;16.08;9.13;;;5.90;94.90;;;;;;5013484;28;20057;-72
2021/11/10 00:34:00;;;;;;;13.05;8.20;;;5.90;94.90;;;;;;5014431;28;20037;-72
2021/11/10 00:36:26;;;;;;;14.23;8.75;;;5.90;94.90;;;;;;5005660;28;20113;-72
2021/11/10 00:38:51;;;;;;;15.45;8.55;;;5.90;94.90;;;;;;5009428;28;20060;-72
2021/11/10 00:41:17;;;;;;;17.23;8.52;;;5.90;94.70;;;;;;5011426;28;20482;-72
2021/11/10 00:43:43;;;;;;;14.10;9.27;;;5.80;94.80;;;;;;5000529;28;20405;-72
2021/11/10 00:46:10;;;;;;;20.30;8.98;;;5.90;94.90;;;;;;5012575;28;20033;-72
2021/11/10 00:48:37;;;;;;;14.50;9.02;;;5.90;94.80;;;;;;5015245;28;20029;-72
2021/11/10 00:51:03;;;;;;;12.80;8.80;;;5.80;94.90;;;;;;5013736;28;20040;-72
2021/11/10 00:53:29;;;;;;;15.52;9.55;;;5.80;95.00;;;;;;5012571;28;20046;-72
2021/11/10 00:55:56;;;;;;;14.40;9.05;;;5.80;94.90;;;;;;4984690;28;20590;-71
2021/11/10 00:58:22;;;;;;;21.30;9.73;;;5.70;94.80;;;;;;5008875;28;20084;-72
2021/11/10 01:00:48;;;;;;;19.52;9.77;;;5.70;94.80;;;;;;5009438;28;20041;-72
2021/11/10 01:03:14;;;;;;;20.33;9.77;;;5.80;94.90;;;;;;5012486;28;20033;-72
2021/11/10 01:05:41;;;;;;;15.38;9.32;;;5.70;94.90;;;;;;5019101;28;20084;-72
2021/11/10 01:08:07;;;;;;;16.55;9.55;;;5.70;94.90;;;;;;5016401;28;20041;-71
2021/11/10 01:10:34;;;;;;;19.30;10.60;;;5.80;95.00;;;;;;5012509;28;20033;-71
2021/11/10 01:13:01;;;;;;;17.30;9.70;;;5.70;95.20;;;;;;5018395;28;20120;-71
2021/11/10 01:15:27;;;;;;;14.95;9.43;;;5.70;94.90;;;;;;5008690;28;20025;-71
2021/11/10 01:17:53;;;;;;;19.52;9.43;;;5.70;94.80;;;;;;5008704;28;20056;-71
2021/11/10 01:20:21;;;;;;;15.52;10.15;;;5.70;94.80;;;;;;5014719;28;20040;-71
2021/11/10 01:22:48;;;;;;;14.05;8.95;;;5.60;94.90;;;;;;5010255;28;20120;-71
2021/11/10 01:25:14;;;;;;;15.88;9.07;;;5.60;94.90;;;;;;5012026;28;20033;-71
2021/11/10 01:27:40;;;;;;;13.65;9.73;;;5.60;94.90;;;;;;5007245;28;20060;-71
2021/11/10 01:30:10;;;;;;;18.00;9.55;;;5.60;94.80;;;;;;5008536;28;20537;-71
2021/11/10 01:32:37;;;;;;;16.25;9.68;;;5.60;94.90;;;;;;5012396;28;20041;-71
2021/11/10 01:35:06;;;;;;;17.95;9.70;;;5.50;94.90;;;;;;5007179;28;20029;-71
2021/11/10 01:37:33;;;;;;;18.50;9.95;;;5.50;94.90;;;;;;5012132;28;20112;-71
2021/11/10 01:40:00;;;;;;;13.52;9.02;;;5.50;94.90;;;;;;5015810;28;20573;-71
2021/11/10 01:42:30;;;;;;;20.08;10.25;;;5.50;95.00;;;;;;5008478;28;20065;-70
2021/11/10 01:44:56;;;;;;;17.25;9.93;;;5.50;95.00;;;;;;5007639;28;20053;-71
2021/11/10 01:47:23;;;;;;;13.82;9.20;;;5.50;95.00;;;;;;5013859;28;20407;-71
2021/11/10 01:49:55;;;;;;;19.88;10.70;;;5.50;95.00;;;;;;5017601;28;20033;-71
2021/11/10 01:52:21;;;;;;;15.63;9.93;;;5.50;94.90;;;;;;5008840;28;20034;-70
2021/11/10 01:54:47;;;;;;;19.42;10.93;;;5.40;94.80;;;;;;5008594;28;20033;-71
2021/11/10 01:57:20;;;;;;;18.92;10.00;;;5.40;95.00;;;;;;5016735;28;20033;-70
2021/11/10 02:00:09;;;;;;;18.70;9.88;;;5.40;94.90;;;;;;5017882;28;20041;-71
2021/11/10 02:02:46;;;;;;;17.30;10.15;;;5.30;95.00;;;;;;5014102;28;20034;-71
2021/11/10 02:05:15;;;;;;;17.33;9.77;;;5.30;95.00;;;;;;5011183;28;20125;-71
2021/11/10 02:07:43;;;;;;;20.60;10.98;;;5.30;94.90;;;;;;5016633;28;20026;-70
2021/11/10 02:10:10;;;;;;;14.32;10.00;;;5.30;95.00;;;;;;5015696;28;20092;-71
2021/11/10 02:12:37;;;;;;;21.58;10.68;;;5.30;95.00;;;;;;5010226;28;20084;-70
2021/11/10 02:15:08;;;;;;;16.35;9.90;;;5.30;95.20;;;;;;5008845;28;20553;-70
2021/11/10 02:17:35;;;;;;;20.10;10.48;;;5.30;95.10;;;;;;5012075;28;20068;-70
2021/11/10 02:20:04;;;;;;;16.75;10.13;;;5.20;95.00;;;;;;5014769;28;20034;-71
2021/11/10 02:22:35;;;;;;;18.63;10.45;;;5.20;95.10;;;;;;5006812;28;20033;-71
2021/11/10 02:25:04;;;;;;;17.13;11.10;;;5.20;95.20;;;;;;5006539;28;20041;-71
2021/11/10 02:27:34;;;;;;;19.63;11.18;;;5.20;95.20;;;;;;5015939;28;20064;-71
2021/11/10 02:30:03;;;;;;;19.90;9.98;;;5.20;95.20;;;;;;5008490;28;20421;-70
2021/11/10 02:32:29;;;;;;;19.88;10.10;;;5.20;95.00;;;;;;5004709;28;20066;-71
2021/11/10 02:34:55;;;;;;;15.80;9.80;;;5.10;95.00;;;;;;4990259;28;20033;-70
2021/11/10 02:37:21;;;;;;;16.88;10.15;;;5.10;95.00;;;;;;5014059;28;20044;-71
2021/11/10 02:39:49;;;;;;;16.92;10.70;;;5.00;95.10;;;;;;5010313;28;20603;-70
2021/11/10 02:42:16;;;;;;;18.73;11.20;;;5.10;95.10;;;;;;5014754;28;20501;-71
2021/11/10 02:44:42;;;;;;;20.85;10.88;;;5.10;95.20;;;;;;5016308;28;20048;-70
2021/11/10 02:47:10;;;;;;;18.67;10.45;;;5.00;95.20;;;;;;5014484;28;20037;-71
2021/11/10 02:49:35;;;;;;;18.67;10.68;;;5.00;95.20;;;;;;5009715;28;20061;-71
2021/11/10 02:52:11;;;;;;;17.67;10.15;;;5.00;95.20;;;;;;5002785;28;20038;-70
2021/11/10 02:54:41;;;;;;;17.67;10.73;;;5.00;95.30;;;;;;4999139;28;20022;-71
2021/11/10 02:57:08;;;;;;;16.70;10.95;;;5.00;95.30;;;;;;5011462;28;20029;-70
2021/11/10 02:59:34;;;;;;;18.05;10.95;;;5.00;95.40;;;;;;5016800;28;20041;-71
2021/11/10 03:02:01;;;;;;;19.70;10.55;;;5.00;95.40;;;;;;5015393;28;20033;-71
2021/11/10 03:04:30;;;;;;;22.35;10.63;;;4.90;95.30;;;;;;5016102;28;20044;-70
2021/11/10 03:06:57;;;;;;;19.55;11.90;;;4.90;95.40;;;;;;5007570;28;20488;-71
2021/11/10 03:09:24;;;;;;;16.88;10.30;;;4.90;95.40;;;;;;5016697;28;20037;-70
2021/11/10 03:11:56;;;;;;;18.83;9.68;;;4.90;95.20;;;;;;5008564;28;20568;-70
2021/11/10 03:14:22;;;;;;;16.30;9.75;;;4.90;95.00;;;;;;5003368;28;20072;-70
2021/11/10 03:16:48;;;;;;;23.90;11.18;;;4.80;95.00;;;;;;5007198;28;20441;-71
2021/11/10 03:19:14;;;;;;;20.55;10.18;;;4.70;94.80;;;;;;5004326;28;20145;-71
2021/11/10 03:21:41;;;;;;;18.15;10.60;;;4.60;94.80;;;;;;5019199;28;20140;-70
2021/11/10 03:24:08;;;;;;;16.10;9.25;;;4.60;94.90;;;;;;5007526;28;20021;-70
2021/11/10 03:26:34;;;;;;;16.33;9.95;;;4.60;95.10;;;;;;5009250;28;20061;-70
2021/11/10 03:29:03;;;;;;;18.83;10.43;;;4.60;95.30;;;;;;5013349;28;20458;-71
2021/11/10 03:31:35;;;;;;;18.35;10.63;;;4.60;95.50;;;;;;5013829;28;20030;-71
2021/11/10 03:34:02;;;;;;;21.13;10.57;;;4.60;95.50;;;;;;5010120;28;20030;-71
2021/11/10 03:36:30;;;;;;;18.48;10.60;;;4.60;95.50;;;;;;5004221;28;20092;-70
2021/11/10 03:38:56;;;;;;;15.82;10.13;;;4.60;95.60;;;;;;4999302;28;20754;-70
2021/11/10 03:41:25;;;;;;;18.83;11.23;;;4.60;95.60;;;;;;5001276;28;20434;-70
2021/11/10 03:43:51;;;;;;;20.90;11.10;;;4.70;95.60;;;;;;5007445;28;20410;-70
2021/11/10 03:46:19;;;;;;;19.58;10.75;;;4.60;95.60;;;;;;5009416;28;20037;-70
2021/11/10 03:48:46;;;;;;;21.90;9.93;;;4.60;95.60;;;;;;5015188;28;20829;-71
2021/11/10 03:51:13;;;;;;;15.27;10.20;;;4.60;95.50;;;;;;5012911;28;20030;-71
2021/11/10 03:53:42;;;;;;;18.95;10.77;;;4.60;95.50;;;;;;5010561;28;20033;-71
2021/11/10 03:56:08;;;;;;;18.73;11.30;;;4.60;95.50;;;;;;5014934;28;20056;-71
2021/11/10 03:58:35;;;;;;;16.90;10.52;;;4.60;95.30;;;;;;5014731;28;20045;-71
2021/11/10 04:01:00;;;;;;;20.05;11.90;;;4.50;95.60;;;;;;5006640;28;20160;-70
2021/11/10 04:03:27;;;;;;;18.23;10.68;;;4.50;95.40;;;;;;5010071;28;20402;-70
2021/11/10 04:05:54;;;;;;;19.63;10.52;;;4.50;95.40;;;;;;5017615;28;20069;-71
2021/11/10 04:08:21;;;;;;;20.67;11.13;;;4.50;95.60;;;;;;5009296;28;20032;-70
2021/11/10 04:10:49;;;;;;;20.60;10.90;;;4.50;95.60;;;;;;5018434;28;20033;-71
2021/11/10 04:13:16;;;;;;;18.77;11.43;;;4.50;95.40;;;;;;5010667;28;20073;-71
2021/11/10 04:15:46;;;;;;;17.48;10.60;;;4.40;95.20;;;;;;5000109;28;20030;-69
2021/11/10 04:18:12;;;;;;;17.23;9.25;;;4.40;95.10;;;;;;5002323;28;20502;-71
2021/11/10 04:20:38;;;;;;;17.95;10.25;;;4.40;95.20;;;;;;5008381;28;20029;-70
2021/11/10 04:23:04;;;;;;;18.10;10.02;;;4.30;95.30;;;;;;5003669;28;20088;-71
2021/11/10 04:25:30;;;;;;;18.27;10.77;;;4.30;95.40;;;;;;5000445;28;20169;-71
2021/11/10 04:27:56;;;;;;;21.80;10.35;;;4.30;95.40;;;;;;5006715;28;20473;-71
2021/11/10 04:30:26;;;;;;;20.10;11.43;;;4.30;95.90;;;;;;5008655;28;20722;-72
2021/11/10 04:32:52;;;;;;;17.33;9.52;;;4.30;96.00;;;;;;5013560;28;20125;-71
2021/11/10 04:35:18;;;;;;;19.67;10.88;;;4.40;96.10;;;;;;5016498;28;20029;-71
2021/11/10 04:37:46;;;;;;;20.20;11.57;;;4.40;95.90;;;;;;5009595;28;20075;-70
2021/11/10 04:40:12;;;;;;;17.77;11.02;;;4.40;95.60;;;;;;5007018;28;20061;-71
2021/11/10 04:42:40;;;;;;;19.77;12.15;;;4.40;95.60;;;;;;5004001;28;20033;-70
2021/11/10 04:45:14;;;;;;;23.98;11.10;;;4.40;95.60;;;;;;5003544;28;20057;-70
2021/11/10 04:47:40;;;;;;;18.98;11.63;;;4.40;95.80;;;;;;4999654;28;20041;-71
2021/11/10 04:50:07;;;;;;;20.40;11.57;;;4.40;95.60;;;;;;5016115;28;20033;-71
2021/11/10 04:52:37;;;;;;;19.10;11.55;;;4.40;95.70;;;;;;5006234;28;20754;-71
2021/11/10 04:55:07;;;;;;;19.38;12.00;;;4.40;95.80;;;;;;5006477;28;20079;-70
2021/11/10 04:57:34;;;;;;;17.73;10.75;;;4.40;95.80;;;;;;5017310;28;20139;-71
2021/11/10 05:00:00;;;;;;;23.27;11.60;;;4.40;95.60;;;;;;5017321;28;20104;-70
2021/11/10 05:02:28;;;;;;;18.08;10.73;;;4.30;95.60;;;;;;5010258;28;20037;-71
2021/11/10 05:04:56;;;;;;;21.73;11.25;;;4.40;95.70;;;;;;5007348;28;20494;-70
2021/11/10 05:07:26;;;;;;;20.38;11.40;;;4.40;95.70;;;;;;5010908;28;20030;-71
2021/11/10 05:09:54;;;;;;;19.25;11.25;;;4.40;95.60;;;;;;5017369;28;20030;-71
2021/11/10 05:12:21;;;;;;;19.58;11.30;;;4.40;95.50;;;;;;5015919;28;20137;-71
2021/11/10 05:14:52;;;;;;;19.00;11.05;;;4.30;95.40;;;;;;5010443;28;20057;-70
2021/11/10 05:17:23;;;;;;;18.30;9.88;;;4.30;95.60;;;;;;5004618;28;20065;-70
2021/11/10 05:19:50;;;;;;;24.73;11.00;;;4.30;95.70;;;;;;5026790;28;20033;-70
2021/11/10 05:22:17;;;;;;;20.83;10.65;;;4.30;95.70;;;;;;5026282;28;20435;-72
2021/11/10 05:24:43;;;;;;;19.98;11.02;;;4.30;95.70;;;;;;5021459;28;20029;-72
2021/11/10 05:27:09;;;;;;;19.63;11.75;;;4.30;95.70;;;;;;5022825;28;20041;-71
2021/11/10 05:29:35;;;;;;;18.58;11.07;;;4.30;95.70;;;;;;5021322;28;20045;-72
2021/11/10 05:32:01;;;;;;;17.20;11.38;;;4.30;95.40;;;;;;5011550;28;20041;-72
2021/11/10 05:34:27;;;;;;;17.15;10.85;;;4.30;95.40;;;;;;5016188;28;20025;-72
2021/11/10 05:36:52;;;;;;;19.77;10.63;;;4.30;95.30;;;;;;5018832;28;20120;-72
2021/11/10 05:39:19;;;;;;;18.92;11.63;;;4.30;95.30;;;;;;5022633;28;20033;-71
2021/11/10 05:41:46;;;;;;;21.95;11.30;;;4.30;95.30;;;;;;5018001;28;20048;-71
2021/11/10 05:44:13;;;;;;;18.38;10.75;;;4.20;95.20;;;;;;5016101;28;20120;-72
2021/11/10 05:46:39;;;;;;;21.63;11.38;;;4.20;95.30;;;;;;5016530;28;20080;-72
2021/11/10 05:49:05;;;;;;;19.52;11.48;;;4.20;95.30;;;;;;5021390;28;20071;-72
2021/11/10 05:51:31;;;;;;;20.88;11.90;;;4.20;95.20;;;;;;5022392;28;20033;-71
2021/11/10 05:53:57;;;;;;;20.23;10.65;;;4.10;95.10;;;;;;5012551;28;20636;-72
2021/11/10 05:56:24;;;;;;;19.25;10.82;;;4.10;95.20;;;;;;5025462;28;20066;-72
2021/11/10 05:58:51;;;;;;;21.45;12.07;;;4.10;95.30;;;;;;5019634;28;20561;-72
2021/11/10 06:01:18;;;;;;;21.42;11.50;;;4.10;95.30;;;;;;5014405;28;20073;-72
2021/11/10 06:03:44;;;;;;;29.50;14.05;;;4.10;95.30;;;;;;5012740;28;20064;-72
2021/11/10 06:06:09;;;;;;;20.67;11.85;;;4.10;95.30;;;;;;5008965;28;20033;-72
2021/11/10 06:08:37;;;;;;;21.45;12.32;;;4.00;95.40;;;;;;5015796;28;20960;-72
2021/11/10 06:11:04;;;;;;;22.13;11.90;;;4.00;95.30;;;;;;5009812;28;20112;-72
2021/11/10 06:13:30;;;;;;;19.88;11.38;;;4.00;95.30;;;;;;5015074;28;20072;-72
2021/11/10 06:15:55;;;;;;;16.70;10.30;;;4.00;95.10;;;;;;5015104;28;20485;-71
2021/11/10 06:18:21;;;;;;;19.55;10.32;;;4.00;95.10;;;;;;5013310;28;20175;-73
2021/11/10 06:20:47;;;;;;;23.30;12.88;;;4.00;95.10;;;;;;5011222;28;20084;-73
2021/11/10 06:23:12;;;;;;;20.25;11.55;;;3.90;95.20;;;;;;5017697;28;20051;-73
2021/11/10 06:25:38;;;;;;;19.10;11.35;;;3.90;95.20;;;;;;5012417;28;20184;-73
2021/11/10 06:28:04;;;;;;;21.73;11.85;;;3.90;95.30;;;;;;5011432;28;20085;-74
2021/11/10 06:30:30;;;;;;;19.58;11.95;;;4.00;95.30;;;;;;5019881;28;20034;-73
2021/11/10 06:32:57;;;;;;;18.92;11.15;;;4.00;95.30;;;;;;5014942;28;20497;-73
2021/11/10 06:35:22;;;;;;;22.63;11.50;;;4.00;95.30;;;;;;5016836;28;20037;-73
2021/11/10 06:37:49;;;;;;;20.70;10.82;;;4.10;95.30;;;;;;5011781;28;20036;-73
2021/11/10 06:40:15;;;;;;;24.70;13.68;;;4.10;95.10;;;;;;5029987;28;20191;-73
2021/11/10 06:42:41;;;;;;;20.92;12.23;;;4.10;95.00;;;;;;5008805;28;20065;-73
2021/11/10 06:45:07;;;;;;;20.55;11.25;;;4.20;94.90;;;;;;5021450;28;20122;-73
2021/11/10 06:47:34;;;;;;;22.52;11.90;;;4.20;94.80;;;;;;5019620;28;20683;-73
2021/11/10 06:50:00;;;;;;;24.98;12.10;;;4.20;94.60;;;;;;5016108;28;20041;-73
2021/11/10 06:52:26;;;;;;;20.27;11.98;;;4.30;94.50;;;;;;5010454;28;20075;-73
2021/11/10 06:54:53;;;;;;;20.65;12.02;;;4.30;94.60;;;;;;5016502;28;20136;-74
2021/11/10 06:57:19;;;;;;;21.27;11.50;;;4.40;94.70;;;;;;5019555;28;20903;-74
2021/11/10 06:59:45;;;;;;;23.98;11.85;;;4.40;94.70;;;;;;5019110;28;20038;-73
2021/11/10 07:02:11;;;;;;;23.23;12.82;;;4.40;94.70;;;;;;5018523;28;20056;-73
2021/11/10 07:04:37;;;;;;;27.23;13.48;;;4.50;94.80;;;;;;5007275;28;20025;-74
2021/11/10 07:07:04;;;;;;;21.60;13.88;;;4.50;94.80;;;;;;5014448;28;20137;-74
2021/11/10 07:09:30;;;;;;;22.95;12.30;;;4.60;94.80;;;;;;5009579;28;20025;-74
2021/11/10 07:11:56;;;;;;;21.83;12.70;;;4.60;94.80;;;;;;5019675;28;20749;-74
2021/11/10 07:14:22;;;;;;;19.77;10.98;;;4.70;94.70;;;;;;5020915;28;20037;-74
2021/11/10 07:16:48;;;;;;;21.25;12.57;;;4.80;94.70;;;;;;5012442;28;20489;-74
2021/11/10 07:19:14;;;;;;;22.17;12.15;;;4.80;94.60;;;;;;5013773;28;20041;-74
2021/11/10 07:21:40;;;;;;;19.67;10.93;;;4.90;94.50;;;;;;5016268;28;20080;-73
2021/11/10 07:24:05;;;;;;;23.25;11.95;;;4.90;94.40;;;;;;5017304;28;20791;-73
2021/11/10 07:26:32;;;;;;;20.80;12.02;;;5.00;94.30;;;;;;5011872;28;20033;-74
2021/11/10 07:28:58;;;;;;;19.83;11.60;;;5.10;94.20;;;;;;5009562;28;20034;-74
2021/11/10 07:31:23;;;;;;;21.75;12.35;;;5.20;94.20;;;;;;5015316;28;20033;-74
2021/11/10 07:33:49;;;;;;;20.23;12.23;;;5.30;94.20;;;;;;5015531;28;20030;-73
2021/11/10 07:36:16;;;;;;;25.27;12.35;;;5.40;94.00;;;;;;5015666;28;20499;-73
2021/11/10 07:38:41;;;;;;;25.23;13.45;;;5.40;93.90;;;;;;5016912;28;20069;-74
2021/11/10 07:41:12;;;;;;;20.58;12.15;;;5.50;93.90;;;;;;5018217;28;20172;-74
2021/11/10 07:43:38;;;;;;;22.15;11.98;;;5.60;93.90;;;;;;5012770;28;20048;-75
2021/11/10 07:46:17;;;;;;;22.00;12.88;;;5.80;93.70;;;;;;5016048;28;20030;-74
2021/11/10 07:48:44;;;;;;;20.02;11.30;;;6.10;93.00;;;;;;5021085;28;20033;-71
2021/11/10 07:51:10;;;;;;;18.67;11.25;;;6.30;92.40;;;;;;5013632;28;20038;-73
2021/11/10 07:53:36;;;;;;;17.48;11.20;;;6.30;92.00;;;;;;5010029;28;20052;-72
2021/11/10 07:56:03;;;;;;;17.35;10.35;;;6.40;91.90;;;;;;5015741;28;20042;-70
2021/11/10 07:58:29;;;;;;;20.48;11.77;;;6.50;91.80;;;;;;5008226;28;20050;-72
2021/11/10 08:00:55;;;;;;;17.70;10.85;;;6.70;91.60;;;;;;5016335;28;20076;-74
2021/11/10 08:03:21;;;;;;;18.75;11.98;;;6.90;91.40;;;;;;5015313;28;20033;-73
2021/11/10 08:05:46;;;;;;;18.17;10.75;;;7.10;91.40;;;;;;5015280;28;20029;-71
2021/11/10 08:08:12;;;;;;;17.05;10.88;;;7.30;90.90;;;;;;5010176;28;20040;-70
2021/11/10 08:10:38;;;;;;;19.65;11.57;;;7.50;90.50;;;;;;5018904;28;20547;-78
2021/11/10 08:13:04;;;;;;;19.30;11.85;;;7.70;90.10;;;;;;5024138;28;20139;-68
2021/11/10 08:15:30;;;;;;;21.48;11.48;;;7.80;88.80;;;;;;5023331;28;20037;-71
2021/11/10 08:17:55;;;;;;;17.75;11.05;;;7.90;88.10;;;;;;5017696;28;20033;-72
2021/11/10 08:20:21;;;;;;;21.30;11.50;;;8.00;87.90;;;;;;5029470;28;20103;-64
2021/11/10 08:22:48;;;;;;;15.13;9.82;;;8.10;87.00;;;;;;5023083;28;20038;-69
2021/11/10 08:25:17;;;;;;;20.25;11.20;;;8.40;86.70;;;;;;5023659;28;20409;-68
2021/11/10 08:27:44;;;;;;;18.02;10.55;;;8.60;84.90;;;;;;5016148;28;20337;-73
2021/11/10 08:30:13;;;;;;;17.42;10.50;;;8.60;84.10;;;;;;5019441;28;20022;-64
2021/11/10 08:32:39;;;;;;;16.25;10.27;;;8.90;83.40;;;;;;5027043;28;20100;-70
2021/11/10 08:35:06;;;;;;;16.15;9.50;;;9.20;81.10;;;;;;5023033;28;20433;-70
2021/11/10 08:37:32;;;;;;;16.30;10.02;;;9.30;81.20;;;;;;5024106;28;20148;-70
2021/11/10 08:39:58;;;;;;;18.70;10.48;;;9.30;80.80;;;;;;5021715;28;20132;-68
2021/11/10 08:42:29;;;;;;;18.98;11.43;;;9.30;81.00;;;;;;5025263;28;20132;-73
2021/11/10 08:44:57;;;;;;;17.50;10.45;;;9.30;81.10;;;;;;5016228;28;20532;-69
2021/11/10 08:47:23;;;;;;;14.18;9.27;;;9.20;81.80;;;;;;5015981;28;20037;-71
2021/11/10 08:49:49;;;;;;;15.85;10.20;;;9.10;81.40;;;;;;5012313;28;20041;-70
2021/11/10 08:52:15;;;;;;;17.27;9.90;;;9.00;82.10;;;;;;5007560;28;20584;-70
2021/11/10 08:54:41;;;;;;;15.75;9.73;;;9.10;82.20;;;;;;5018223;28;20040;-71
2021/11/10 08:57:07;;;;;;;17.77;10.40;;;9.20;81.60;;;;;;5024519;28;20037;-72
2021/11/10 08:59:33;;;;;;;17.88;10.23;;;9.70;80.60;;;;;;5021664;28;20669;-68
2021/11/10 09:02:01;;;;;;;17.58;10.52;;;12.20;71.90;;;;;;5015316;28;20037;-70
2021/11/10 09:04:26;;;;;;;18.70;11.23;;;14.70;60.40;;;;;;5016454;28;20109;-68
2021/11/10 09:06:52;;;;;;;21.20;9.80;;;15.90;57.00;;;;;;5018994;28;20099;-68
2021/11/10 09:09:18;;;;;;;13.20;9.02;;;17.20;52.40;;;;;;5022367;28;20505;-69
2021/11/10 09:11:47;;;;;;;14.55;9.20;;;17.80;51.10;;;;;;5024290;28;20052;-68
2021/11/10 09:14:13;;;;;;;12.05;8.60;;;18.10;49.90;;;;;;5018603;28;20122;-67
2021/11/10 09:16:39;;;;;;;12.50;8.05;;;18.30;49.80;;;;;;5019950;28;20873;-67
2021/11/10 09:19:05;;;;;;;12.30;8.38;;;17.90;47.40;;;;;;5016411;28;20038;-67
2021/11/10 09:21:31;;;;;;;11.80;7.78;;;16.90;48.80;;;;;;5017608;28;20034;-68
2021/11/10 09:23:57;;;;;;;13.05;8.65;;;16.10;50.90;;;;;;5023044;28;20055;-67
2021/11/10 09:26:22;;;;;;;12.88;8.20;;;15.50;54.00;;;;;;5014411;28;20145;-68
2021/11/10 09:28:48;;;;;;;14.38;7.90;;;15.50;54.30;;;;;;5020048;28;20145;-69
2021/11/10 09:31:15;;;;;;;14.25;7.90;;;15.00;54.70;;;;;;5025482;28;20083;-67
2021/11/10 09:33:41;;;;;;;14.80;8.30;;;14.20;57.40;;;;;;5023914;28;20044;-67
2021/11/10 09:36:08;;;;;;;11.77;8.88;;;13.60;59.00;;;;;;5023506;28;20069;-66
2021/11/10 09:38:35;;;;;;;16.02;9.07;;;12.80;59.50;;;;;;5022761;28;20049;-66
2021/11/10 09:41:03;;;;;;;13.43;8.40;;;12.30;62.60;;;;;;5023634;28;20034;-69
2021/11/10 09:43:47;;;;;;;13.57;7.85;;;12.00;65.10;;;;;;5014179;28;20034;-66
2021/11/10 09:46:14;;;;;;;14.13;8.73;;;11.80;66.40;;;;;;5013216;28;20395;-67
2021/11/10 09:48:41;;;;;;;14.43;8.70;;;11.60;67.00;;;;;;5013001;28;20049;-67
2021/11/10 09:51:07;;;;;;;13.15;9.00;;;11.60;66.60;;;;;;5017191;28;20649;-67
2021/11/10 09:53:34;;;;;;;20.15;11.55;;;11.50;67.70;;;;;;5019664;28;20029;-67
2021/11/10 09:56:01;;;;;;;16.67;8.30;;;11.40;68.40;;;;;;5020174;28;20060;-70
2021/11/10 09:58:27;;;;;;;14.27;8.85;;;11.50;67.80;;;;;;5016407;28;20041;-67
2021/11/10 10:01:00;;;;;;;13.10;7.97;;;11.40;68.10;;;;;;5016601;28;20037;-67
2021/11/10 10:03:26;;;;;;;11.50;7.57;;;11.50;68.50;;;;;;5021360;28;20049;-67
2021/11/10 10:05:54;;;;;;;16.52;7.20;;;11.60;67.20;;;;;;5019682;28;20084;-67
2021/11/10 10:08:21;;;;;;;15.23;8.70;;;11.70;68.60;;;;;;5015964;28;20060;-67
2021/11/10 10:10:48;;;;;;;15.45;8.68;;;11.90;68.00;;;;;;5013960;28;20037;-67
2021/11/10 10:13:15;;;;;;;15.18;8.52;;;12.30;66.40;;;;;;5025336;28;20041;-67
2021/11/10 10:15:42;;;;;;;13.20;7.70;;;12.30;66.20;;;;;;5016200;28;20056;-66
2021/11/10 10:18:14;;;;;;;12.55;7.88;;;12.30;67.00;;;;;;5010018;28;20045;-68
2021/11/10 10:20:41;;;;;;;12.98;7.63;;;12.40;66.10;;;;;;5012566;28;20042;-66
2021/11/10 10:23:15;;;;;;;14.23;8.25;;;12.30;65.80;;;;;;5015037;28;20032;-67
2021/11/10 10:25:58;;;;;;;12.15;7.43;;;12.00;68.00;;;;;;5022019;28;20044;-65
2021/11/10 10:28:33;;;;;;;12.57;7.25;;;11.90;69.40;;;;;;5017181;28;20112;-65
2021/11/10 10:31:05;;;;;;;11.50;6.60;;;11.70;67.50;;;;;;5015254;28;20041;-63
2021/11/10 10:33:39;;;;;;;9.98;6.47;;;11.50;69.60;;;;;;5019293;28;20029;-65
2021/11/10 10:36:09;;;;;;;11.57;6.50;;;11.40;68.50;;;;;;5011489;28;20036;-66
2021/11/10 10:38:40;;;;;;;12.07;7.85;;;11.30;70.00;;;;;;5013978;28;20037;-65
2021/11/10 10:41:08;;;;;;;11.60;7.20;;;11.20;70.50;;;;;;5025419;28;20041;-72
2021/11/10 10:43:43;;;;;;;15.32;8.05;;;11.30;70.70;;;;;;5010068;28;20103;-70
2021/11/10 10:46:09;;;;;;;12.23;7.20;;;11.40;71.10;;;;;;5016454;28;20045;-70
2021/11/10 10:48:36;;;;;;;10.77;6.97;;;11.40;69.20;;;;;;5019033;28;20037;-71
2021/11/10 10:51:13;;;;;;;12.82;6.82;;;11.40;69.70;;;;;;5026185;28;20034;-67
2021/11/10 10:53:44;;;;;;;11.10;6.70;;;11.40;70.00;;;;;;5014172;28;20089;-69
2021/11/10 10:56:18;;;;;;;10.13;6.78;;;11.50;70.80;;;;;;5019208;28;20037;-69
2021/11/10 10:58:44;;;;;;;9.75;6.32;;;11.40;70.50;;;;;;5008290;28;20034;-68
2021/11/10 11:01:18;;;;;;;12.13;6.60;;;11.40;70.00;;;;;;5006468;28;20065;-69
2021/11/10 11:03:52;;;;;;;13.60;6.70;;;11.40;70.70;;;;;;5013377;28;20120;-67
2021/11/10 11:06:31;;;;;;;13.48;7.95;;;11.30;69.90;;;;;;5018486;28;20809;-69
2021/11/10 11:09:09;;;;;;;10.18;7.07;;;11.30;70.10;;;;;;5010629;28;20031;-69
2021/11/10 11:11:39;;;;;;;15.25;7.03;;;11.30;70.80;;;;;;5013636;28;20048;-67
2021/11/10 11:14:15;;;;;;;16.90;7.68;;;11.30;71.00;;;;;;5017724;28;20044;-67
2021/11/10 11:16:42;;;;;;;10.60;6.68;;;11.30;71.10;;;;;;5019199;28;20044;-69
2021/11/10 11:19:18;;;;;;;11.60;6.32;;;11.20;71.00;;;;;;5017547;28;20605;-69
2021/11/10 11:21:55;;;;;;;10.13;6.65;;;11.20;71.10;;;;;;5015619;28;20451;-66
2021/11/10 11:24:30;;;;;;;10.63;7.03;;;11.20;71.80;;;;;;5003665;28;20612;-67
2021/11/10 11:27:09;;;;;;;11.40;6.25;;;11.20;72.40;;;;;;5013615;28;20041;-66
2021/11/10 11:29:34;;;;;;;11.82;6.05;;;11.20;72.50;;;;;;5023433;28;20021;-69
2021/11/10 11:32:00;;;;;;;9.30;6.22;;;11.20;72.70;;;;;;5017210;28;20687;-68
2021/11/10 11:34:45;;;;;;;8.30;6.00;;;11.20;72.60;;;;;;5018843;28;20635;-68
2021/11/10 11:37:11;;;;;;;8.80;5.93;;;11.30;72.00;;;;;;5012484;28;20034;-69
2021/11/10 11:39:37;;;;;;;9.40;5.82;;;11.20;70.50;;;;;;5010805;28;20167;-68
2021/11/10 11:42:03;;;;;;;11.60;6.50;;;11.20;70.80;;;;;;5017518;28;20041;-67
2021/11/10 11:44:30;;;;;;;11.50;5.97;;;11.20;70.70;;;;;;5001233;28;20079;-67
2021/11/10 11:46:55;;;;;;;10.80;6.22;;;11.20;71.80;;;;;;5003874;28;20498;-69
2021/11/10 11:49:21;;;;;;;10.57;6.65;;;11.20;71.50;;;;;;5017809;28;20028;-69
2021/11/10 11:51:47;;;;;;;7.93;6.20;;;11.20;70.70;;;;;;5015753;28;20025;-69
2021/11/10 11:54:14;;;;;;;11.70;6.45;;;11.20;71.10;;;;;;5017918;28;20037;-68
2021/11/10 11:56:42;;;;;;;10.88;6.43;;;11.20;72.10;;;;;;5017730;28;20414;-68
2021/11/10 11:59:08;;;;;;;12.55;6.43;;;11.30;71.90;;;;;;5007074;28;20560;-68
2021/11/10 12:01:37;;;;;;;12.43;6.80;;;11.30;72.20;;;;;;5006699;28;20124;-68
2021/11/10 12:04:07;;;;;;;11.35;6.18;;;11.30;71.30;;;;;;5014630;28;20071;-68
2021/11/10 12:06:53;;;;;;;11.85;6.47;;;11.30;70.70;;;;;;5013921;28;20034;-69
2021/11/10 12:09:21;;;;;;;8.52;6.00;;;11.30;70.80;;;;;;5017683;28;20111;-68
2021/11/10 12:11:55;;;;;;;11.52;6.50;;;11.30;70.00;;;;;;5008120;28;20083;-69
2021/11/10 12:14:27;;;;;;;9.27;6.32;;;11.10;71.80;;;;;;5020402;28;20730;-68
2021/11/10 12:17:08;;;;;;;8.60;6.18;;;11.10;72.40;;;;;;5013667;28;20679;-69
2021/11/10 12:19:38;;;;;;;10.82;6.88;;;11.10;72.40;;;;;;5014582;28;20037;-68
2021/11/10 12:22:11;;;;;;;14.93;7.20;;;11.10;72.80;;;;;;5019726;28;20048;-68
2021/11/10 12:24:52;;;;;;;14.63;7.78;;;11.10;72.00;;;;;;5013448;28;20033;-69
2021/11/10 12:27:40;;;;;;;14.98;8.02;;;11.00;72.30;;;;;;5014083;28;20065;-67
2021/11/10 12:30:18;;;;;;;14.43;7.35;;;11.00;72.20;;;;;;5017536;28;20417;-69
2021/11/10 12:32:48;;;;;;;15.23;8.20;;;11.00;72.60;;;;;;5005962;28;20063;-71
2021/11/10 12:35:30;;;;;;;11.85;7.35;;;11.00;72.10;;;;;;5013950;28;20450;-71
2021/11/10 12:37:59;;;;;;;13.15;7.00;;;11.10;71.70;;;;;;5017674;28;20041;-68
2021/11/10 12:40:32;;;;;;;12.18;7.20;;;11.10;72.40;;;;;;5011839;28;20105;-68
2021/11/10 12:43:01;;;;;;;13.15;8.15;;;11.20;71.20;;;;;;5013963;28;20034;-68